createdAt,value
2023-04-29T00:02:58.185Z,15.20
2023-04-29T00:07:59.724Z,15.48
2023-04-29T00:13:01.233Z,15.85
2023-04-29T00:18:03.294Z,15.13
2023-04-29T00:23:04.888Z,14.80
2023-04-29T00:28:06.476Z,15.73
2023-04-29T00:33:08.072Z,17.55
2023-04-29T00:38:09.656Z,18.13
2023-04-29T00:43:11.149Z,18.10
2023-04-29T00:48:15.147Z,18.35
2023-04-29T00:53:17.299Z,17.95
2023-04-29T00:58:20.098Z,18.48
2023-04-29T01:03:22.744Z,18.98
2023-04-29T01:08:41.143Z,18.88
2023-04-29T01:13:51.584Z,18.08
2023-04-29T01:19:01.421Z,18.70
2023-04-29T01:24:02.928Z,20.77
2023-04-29T01:29:42.324Z,20.40
2023-04-29T01:34:59.571Z,19.50
2023-04-29T01:40:25.830Z,19.87
2023-04-29T01:45:28.784Z,21.90
2023-04-29T01:50:30.465Z,20.38
2023-04-29T01:55:31.947Z,20.00
2023-04-29T02:00:33.548Z,19.48
2023-04-29T02:05:35.942Z,16.83
2023-04-29T02:10:37.471Z,17.27
2023-04-29T02:15:38.939Z,17.38
2023-04-29T02:20:40.465Z,16.35
2023-04-29T02:25:41.918Z,16.90
2023-04-29T02:30:43.477Z,14.93
2023-04-29T02:35:45.064Z,15.85
2023-04-29T02:40:47.141Z,16.05
2023-04-29T02:45:48.712Z,16.98
2023-04-29T02:50:50.318Z,17.60
2023-04-29T02:55:51.851Z,19.17
2023-04-29T03:00:53.498Z,17.80
2023-04-29T03:05:54.983Z,18.52
2023-04-29T03:10:56.488Z,18.65
2023-04-29T03:15:59.816Z,17.65
2023-04-29T03:21:01.419Z,17.67
2023-04-29T03:26:03.229Z,17.13
2023-04-29T03:31:05.043Z,16.88
2023-04-29T03:36:08.532Z,17.17
2023-04-29T03:41:11.193Z,15.27
2023-04-29T03:46:12.768Z,15.40
2023-04-29T03:51:14.456Z,14.43
2023-04-29T03:56:17.496Z,15.77
2023-04-29T04:01:19.487Z,16.05
2023-04-29T04:06:21.265Z,15.82
2023-04-29T04:11:22.795Z,16.33
2023-04-29T04:16:24.349Z,17.52
2023-04-29T04:21:27.312Z,16.60
2023-04-29T04:26:28.810Z,15.23
2023-04-29T04:31:30.982Z,14.52
2023-04-29T04:36:32.818Z,13.77
2023-04-29T04:41:34.344Z,13.60
2023-04-29T04:46:36.922Z,13.88
2023-04-29T04:51:38.445Z,15.25
2023-04-29T04:56:40.012Z,15.27
2023-04-29T05:01:41.583Z,13.98
2023-04-29T05:06:43.350Z,14.68
2023-04-29T05:11:44.822Z,14.27
2023-04-29T05:16:46.777Z,14.38
2023-04-29T05:21:48.308Z,13.90
2023-04-29T05:26:51.948Z,14.82
2023-04-29T05:31:53.488Z,14.70
2023-04-29T05:36:54.996Z,13.77
2023-04-29T05:41:56.906Z,13.60
2023-04-29T05:46:58.976Z,12.93
2023-04-29T05:52:04.091Z,13.32
2023-04-29T05:57:05.651Z,13.20
2023-04-29T06:02:07.186Z,12.35
2023-04-29T06:07:09.390Z,11.13
2023-04-29T06:12:11.222Z,10.18
2023-04-29T06:17:12.927Z,10.23
2023-04-29T06:22:14.482Z,8.98
2023-04-29T06:27:16.390Z,8.40
2023-04-29T06:32:18.341Z,7.50
2023-04-29T06:37:19.884Z,7.15
2023-04-29T06:42:21.477Z,6.88
2023-04-29T06:47:23.390Z,6.65
2023-04-29T06:52:24.943Z,7.85
2023-04-29T06:57:27.167Z,6.43
2023-04-29T07:02:28.827Z,5.90
2023-04-29T07:07:30.412Z,6.45
2023-04-29T07:12:31.943Z,5.97
2023-04-29T07:17:33.538Z,6.15
2023-04-29T07:22:35.164Z,6.22
2023-04-29T07:27:37.152Z,6.47
2023-04-29T07:32:38.747Z,6.55
2023-04-29T07:37:43.855Z,8.02
2023-04-29T07:42:45.587Z,6.63
2023-04-29T07:47:47.214Z,6.72
2023-04-29T07:52:48.769Z,5.85
2023-04-29T07:57:50.352Z,5.78
2023-04-29T08:02:52.774Z,6.10
2023-04-29T08:07:54.365Z,5.68
2023-04-29T08:12:56.174Z,5.55
2023-04-29T08:17:57.802Z,6.25
2023-04-29T08:23:00.694Z,5.78
2023-04-29T08:28:02.174Z,5.45
2023-04-29T08:33:03.866Z,5.50
2023-04-29T08:38:06.748Z,5.88
2023-04-29T08:43:10.227Z,5.55
2023-04-29T08:48:12.620Z,6.07
2023-04-29T08:53:14.723Z,6.22
2023-04-29T08:58:16.973Z,6.03
2023-04-29T09:03:27.317Z,6.18
2023-04-29T09:08:30.503Z,5.13
2023-04-29T09:13:35.263Z,6.05
2023-04-29T09:18:46.915Z,5.47
2023-04-29T09:23:50.407Z,5.50
2023-04-29T09:29:13.979Z,5.15
2023-04-29T09:34:16.412Z,5.57
2023-04-29T09:39:22.473Z,5.70
2023-04-29T09:44:27.266Z,5.47
2023-04-29T09:49:38.658Z,5.03
2023-04-29T09:54:41.216Z,5.35
2023-04-29T09:59:43.517Z,4.95
2023-04-29T10:04:47.046Z,4.82
2023-04-29T10:09:49.208Z,4.72
2023-04-29T10:14:58.094Z,4.93
2023-04-29T10:20:02.302Z,4.95
2023-04-29T10:25:07.703Z,5.45
2023-04-29T10:30:13.998Z,5.13
2023-04-29T10:35:19.113Z,4.77
2023-04-29T10:40:43.755Z,4.05
2023-04-29T10:45:45.814Z,4.38
2023-04-29T10:50:47.369Z,4.53
2023-04-29T10:56:00.038Z,5.45
2023-04-29T11:01:01.782Z,4.40
2023-04-29T11:06:09.658Z,5.35
2023-04-29T11:11:13.889Z,4.28
2023-04-29T11:16:15.610Z,4.18
2023-04-29T11:21:17.121Z,4.43
2023-04-29T11:26:20.037Z,3.25
2023-04-29T11:31:21.612Z,5.05
2023-04-29T11:36:23.757Z,3.35
2023-04-29T11:41:26.275Z,3.50
2023-04-29T11:46:30.971Z,3.22
2023-04-29T11:51:32.744Z,3.63
2023-04-29T11:56:34.285Z,3.58
2023-04-29T12:01:36.363Z,3.33
2023-04-29T12:06:37.858Z,3.20
2023-04-29T12:11:39.726Z,2.33
2023-04-29T12:16:41.789Z,2.60
2023-04-29T12:21:50.202Z,2.40
2023-04-29T12:26:53.972Z,2.67
2023-04-29T12:31:58.456Z,1.70
2023-04-29T12:37:00.860Z,1.80
2023-04-29T12:42:02.989Z,2.05
2023-04-29T12:47:11.708Z,1.80
2023-04-29T12:52:13.920Z,1.75
2023-04-29T12:57:15.631Z,1.77
2023-04-29T13:02:17.363Z,1.65
2023-04-29T13:07:18.936Z,1.80
2023-04-29T13:12:20.578Z,1.30
2023-04-29T13:17:22.159Z,1.38
2023-04-29T13:22:23.615Z,2.00
2023-04-29T13:27:25.070Z,1.00
2023-04-29T13:32:34.736Z,0.80
2023-04-29T13:37:43.859Z,0.80
2023-04-29T13:42:49.727Z,0.90
2023-04-29T13:48:06.663Z,0.70
2023-04-29T14:03:22.409Z,0.90
2023-04-29T14:08:24.000Z,1.17
2023-04-29T14:13:25.547Z,1.10
2023-04-29T14:18:27.733Z,1.10
2023-04-29T14:23:29.208Z,0.77
2023-04-29T14:28:30.716Z,1.00
2023-04-29T14:33:32.377Z,1.30
2023-04-29T14:38:33.931Z,2.00
2023-04-29T14:43:35.810Z,1.80
2023-04-29T14:48:37.338Z,1.55
2023-04-29T14:53:39.163Z,2.78
2023-04-29T14:58:41.054Z,3.15
2023-04-29T15:03:45.054Z,1.30
2023-04-29T15:08:47.009Z,1.48
2023-04-29T15:13:48.621Z,1.30
2023-04-29T15:18:50.160Z,2.13
2023-04-29T15:23:51.708Z,2.30
2023-04-29T15:28:53.471Z,1.75
2023-04-29T15:33:55.514Z,1.38
2023-04-29T15:38:57.351Z,2.58
2023-04-29T15:43:58.966Z,1.95
2023-04-29T15:49:01.064Z,1.80
2023-04-29T15:54:02.615Z,2.13
2023-04-29T15:59:04.221Z,4.30
2023-04-29T16:04:05.832Z,4.90
2023-04-29T16:09:07.520Z,2.00
2023-04-29T16:14:08.984Z,3.13
2023-04-29T16:19:10.555Z,2.03
2023-04-29T16:24:12.820Z,1.80
2023-04-29T16:29:14.302Z,3.03
2023-04-29T16:34:15.815Z,3.53
2023-04-29T16:39:17.275Z,3.20
2023-04-29T16:44:18.804Z,3.58
2023-04-29T16:49:26.395Z,4.03
2023-04-29T16:59:29.306Z,3.67
2023-04-29T17:04:33.832Z,3.90
2023-04-29T17:09:35.611Z,4.15
2023-04-29T17:14:39.782Z,4.43
2023-04-29T17:19:41.781Z,3.80
2023-04-29T17:24:46.018Z,3.95
2023-04-29T17:29:47.570Z,4.05
2023-04-29T17:34:49.101Z,3.67
2023-04-29T17:39:53.038Z,4.03
2023-04-29T17:44:54.680Z,3.97
2023-04-29T17:49:57.314Z,3.65
2023-04-29T17:54:59.880Z,3.72
2023-04-29T18:00:01.389Z,3.60
2023-04-29T18:05:04.784Z,3.85
2023-04-29T18:10:07.055Z,4.80
2023-04-29T18:15:09.718Z,3.80
2023-04-29T18:20:12.824Z,4.38
2023-04-29T18:25:14.354Z,5.38
2023-04-29T18:30:15.846Z,3.97
2023-04-29T18:35:17.392Z,5.22
2023-04-29T18:40:18.986Z,4.72
2023-04-29T18:45:20.695Z,4.75
2023-04-29T18:50:22.201Z,5.22
2023-04-29T18:55:24.917Z,5.10
2023-04-29T19:00:27.043Z,5.05
2023-04-29T19:05:28.713Z,4.70
2023-04-29T19:10:30.585Z,4.90
2023-04-29T19:15:32.533Z,4.25
2023-04-29T19:20:34.418Z,5.07
2023-04-29T19:25:36.038Z,5.57
2023-04-29T19:30:37.715Z,4.85
2023-04-29T19:35:39.276Z,5.65
2023-04-29T19:40:40.885Z,7.13
2023-04-29T19:45:42.643Z,6.40
2023-04-29T19:50:44.227Z,6.55
2023-04-29T19:55:45.734Z,5.95
2023-04-29T20:00:47.332Z,6.13
2023-04-29T20:05:49.329Z,7.05
2023-04-29T20:10:50.867Z,7.18
2023-04-29T20:15:54.123Z,6.88
2023-04-29T20:20:56.281Z,7.38
2023-04-29T20:25:58.317Z,7.20
2023-04-29T20:30:59.923Z,6.97
2023-04-29T20:36:06.417Z,7.55
2023-04-29T20:41:08.048Z,7.65
2023-04-29T20:46:11.806Z,7.35
2023-04-29T20:51:13.622Z,7.68
2023-04-29T20:56:16.205Z,7.63
2023-04-29T21:01:19.430Z,6.60
2023-04-29T21:06:21.025Z,6.40
2023-04-29T21:11:22.573Z,7.63
2023-04-29T21:16:24.204Z,8.20
2023-04-29T21:21:26.106Z,10.18
2023-04-29T21:26:27.571Z,7.60
2023-04-29T21:31:30.460Z,7.22
2023-04-29T21:36:32.077Z,6.85
2023-04-29T21:41:37.454Z,7.03
2023-04-29T21:46:39.534Z,7.47
2023-04-29T21:51:41.254Z,7.50
2023-04-29T21:56:42.771Z,7.25
2023-04-29T22:01:47.279Z,6.38
2023-04-29T22:06:48.848Z,7.32
2023-04-29T22:11:50.337Z,6.65
2023-04-29T22:16:51.990Z,6.47
2023-04-29T22:21:53.528Z,6.10
2023-04-29T22:26:55.057Z,6.53
2023-04-29T22:31:56.706Z,6.50
2023-04-29T22:36:58.324Z,6.88
2023-04-29T22:41:59.874Z,6.75
2023-04-29T22:47:01.719Z,7.30
2023-04-29T22:52:03.205Z,6.65
2023-04-29T23:19:56.222Z,8.40
2023-04-29T23:24:57.968Z,7.65
2023-04-29T23:30:00.218Z,6.75
2023-04-29T23:35:01.751Z,6.18
2023-04-29T23:40:04.751Z,6.30
2023-04-29T23:45:06.842Z,6.30
2023-04-29T23:50:08.859Z,5.88
2023-04-29T23:55:10.514Z,5.93
